sensor_id;sensor_type;location;lat;lon;timestamp;temperature;humidity
19947;DHT22;10135;50.702;7.276;2023-10-13T05:00:31;21.30;72.30
19947;DHT22;10135;50.702;7.276;2023-10-13T05:02:54;21.30;72.40
19947;DHT22;10135;50.702;7.276;2023-10-13T05:05:14;21.30;73.10
19947;DHT22;10135;50.702;7.276;2023-10-13T05:07:15;21.30;72.30
19947;DHT22;10135;50.702;7.276;2023-10-13T05:09:34;21.30;72.30
19947;DHT22;10135;50.702;7.276;2023-10-13T05:11:53;21.30;72.40
19947;DHT22;10135;50.702;7.276;2023-10-13T05:14:12;21.30;72.40
19947;DHT22;10135;50.702;7.276;2023-10-13T05:16:31;21.30;72.40
19947;DHT22;10135;50.702;7.276;2023-10-13T05:18:50;21.30;72.40
19947;DHT22;10135;50.702;7.276;2023-10-13T05:21:10;21.30;72.40
19947;DHT22;10135;50.702;7.276;2023-10-13T05:23:29;21.40;72.50
19947;DHT22;10135;50.702;7.276;2023-10-13T05:25:48;21.30;72.40
19947;DHT22;10135;50.702;7.276;2023-10-13T05:28:07;21.40;72.50
19947;DHT22;10135;50.702;7.276;2023-10-13T05:30:26;21.40;72.50
19947;DHT22;10135;50.702;7.276;2023-10-13T05:32:45;21.40;72.60
19947;DHT22;10135;50.702;7.276;2023-10-13T05:35:04;21.40;72.50
19947;DHT22;10135;50.702;7.276;2023-10-13T05:37:24;21.40;72.50
19947;DHT22;10135;50.702;7.276;2023-10-13T05:39:43;21.40;72.60
19947;DHT22;10135;50.702;7.276;2023-10-13T05:42:02;21.40;72.60
19947;DHT22;10135;50.702;7.276;2023-10-13T05:44:21;21.40;72.60
19947;DHT22;10135;50.702;7.276;2023-10-13T05:46:34;21.40;72.50
19947;DHT22;10135;50.702;7.276;2023-10-13T05:48:38;21.40;72.60
19947;DHT22;10135;50.702;7.276;2023-10-13T05:51:01;21.50;72.70
19947;DHT22;10135;50.702;7.276;2023-10-13T05:53:33;21.50;72.60
19947;DHT22;10135;50.702;7.276;2023-10-13T05:55:52;21.50;72.60
19947;DHT22;10135;50.702;7.276;2023-10-13T05:58:18;21.50;72.60
19947;DHT22;10135;50.702;7.276;2023-10-13T06:00:41;21.50;72.60
19947;DHT22;10135;50.702;7.276;2023-10-13T06:03:00;21.50;72.80
19947;DHT22;10135;50.702;7.276;2023-10-13T06:05:19;21.50;72.60
19947;DHT22;10135;50.702;7.276;2023-10-13T06:07:38;21.50;72.60
19947;DHT22;10135;50.702;7.276;2023-10-13T06:09:57;21.60;72.90
19947;DHT22;10135;50.702;7.276;2023-10-13T06:12:16;21.60;72.60
19947;DHT22;10135;50.702;7.276;2023-10-13T06:14:35;21.60;72.60
19947;DHT22;10135;50.702;7.276;2023-10-13T06:16:54;21.60;72.70
19947;DHT22;10135;50.702;7.276;2023-10-13T06:19:13;21.60;72.60
19947;DHT22;10135;50.702;7.276;2023-10-13T06:21:32;21.60;72.60
19947;DHT22;10135;50.702;7.276;2023-10-13T06:23:51;21.60;72.60
19947;DHT22;10135;50.702;7.276;2023-10-13T06:26:10;21.70;72.70
19947;DHT22;10135;50.702;7.276;2023-10-13T06:28:29;21.70;72.60
19947;DHT22;10135;50.702;7.276;2023-10-13T06:30:41;21.70;72.70
19947;DHT22;10135;50.702;7.276;2023-10-13T06:32:44;21.70;72.70
19947;DHT22;10135;50.702;7.276;2023-10-13T06:34:46;21.70;72.60
19947;DHT22;10135;50.702;7.276;2023-10-13T06:36:48;21.70;72.60
19947;DHT22;10135;50.702;7.276;2023-10-13T06:38:49;21.70;72.60
19947;DHT22;10135;50.702;7.276;2023-10-13T06:40:55;21.80;72.60
19947;DHT22;10135;50.702;7.276;2023-10-13T06:42:56;21.80;72.70
19947;DHT22;10135;50.702;7.276;2023-10-13T06:45:12;21.80;72.70
19947;DHT22;10135;50.702;7.276;2023-10-13T06:47:13;21.90;72.70
19947;DHT22;10135;50.702;7.276;2023-10-13T06:49:14;21.90;72.70
19947;DHT22;10135;50.702;7.276;2023-10-13T06:51:14;21.90;72.60
19947;DHT22;10135;50.702;7.276;2023-10-13T06:53:19;21.90;72.70
19947;DHT22;10135;50.702;7.276;2023-10-13T06:55:20;21.90;72.60
19947;DHT22;10135;50.702;7.276;2023-10-13T06:57:35;21.90;72.60
19947;DHT22;10135;50.702;7.276;2023-10-13T06:59:36;22.00;72.60
19947;DHT22;10135;50.702;7.276;2023-10-13T07:01:40;22.00;72.60
19947;DHT22;10135;50.702;7.276;2023-10-13T07:03:42;22.00;72.60
19947;DHT22;10135;50.702;7.276;2023-10-13T07:05:44;22.00;72.50
19947;DHT22;10135;50.702;7.276;2023-10-13T07:07:47;22.00;72.50
19947;DHT22;10135;50.702;7.276;2023-10-13T07:09:50;22.10;72.50
19947;DHT22;10135;50.702;7.276;2023-10-13T07:12:00;22.10;72.50
19947;DHT22;10135;50.702;7.276;2023-10-13T07:14:04;22.10;72.50
19947;DHT22;10135;50.702;7.276;2023-10-13T07:16:11;22.10;72.40
19947;DHT22;10135;50.702;7.276;2023-10-13T07:18:14;22.10;72.40
19947;DHT22;10135;50.702;7.276;2023-10-13T07:20:18;22.10;72.30
19947;DHT22;10135;50.702;7.276;2023-10-13T07:22:25;22.20;72.40
19947;DHT22;10135;50.702;7.276;2023-10-13T07:24:28;22.20;72.20
19947;DHT22;10135;50.702;7.276;2023-10-13T07:26:31;22.20;72.30
19947;DHT22;10135;50.702;7.276;2023-10-13T07:28:34;22.20;72.30
19947;DHT22;10135;50.702;7.276;2023-10-13T07:30:44;22.20;72.20
19947;DHT22;10135;50.702;7.276;2023-10-13T07:32:54;22.30;72.20
19947;DHT22;10135;50.702;7.276;2023-10-13T07:34:59;22.30;72.10
19947;DHT22;10135;50.702;7.276;2023-10-13T07:37:12;22.30;72.00
19947;DHT22;10135;50.702;7.276;2023-10-13T07:39:16;22.40;72.00
19947;DHT22;10135;50.702;7.276;2023-10-13T07:41:25;22.40;72.00
19947;DHT22;10135;50.702;7.276;2023-10-13T07:43:30;22.40;72.70
19947;DHT22;10135;50.702;7.276;2023-10-13T07:45:33;22.40;71.80
19947;DHT22;10135;50.702;7.276;2023-10-13T07:47:36;22.50;71.90
19947;DHT22;10135;50.702;7.276;2023-10-13T07:49:39;22.50;71.80
19947;DHT22;10135;50.702;7.276;2023-10-13T07:51:40;22.50;71.70
19947;DHT22;10135;50.702;7.276;2023-10-13T07:53:49;22.50;71.60
19947;DHT22;10135;50.702;7.276;2023-10-13T07:55:50;22.60;71.60
19947;DHT22;10135;50.702;7.276;2023-10-13T07:58:02;22.60;71.40
19947;DHT22;10135;50.702;7.276;2023-10-13T08:00:08;22.60;71.30
19947;DHT22;10135;50.702;7.276;2023-10-13T08:02:11;22.60;71.20
19947;DHT22;10135;50.702;7.276;2023-10-13T08:04:12;22.60;72.00
19947;DHT22;10135;50.702;7.276;2023-10-13T08:06:16;22.60;71.20
19947;DHT22;10135;50.702;7.276;2023-10-13T08:08:17;22.60;71.20
19947;DHT22;10135;50.702;7.276;2023-10-13T08:10:19;22.60;71.10
19947;DHT22;10135;50.702;7.276;2023-10-13T08:12:25;22.60;70.90
19947;DHT22;10135;50.702;7.276;2023-10-13T08:14:26;22.70;70.90
19947;DHT22;10135;50.702;7.276;2023-10-13T08:16:34;22.70;70.90
19947;DHT22;10135;50.702;7.276;2023-10-13T08:18:53;22.70;70.90
19947;DHT22;10135;50.702;7.276;2023-10-13T08:20:53;22.70;70.80
19947;DHT22;10135;50.702;7.276;2023-10-13T08:22:54;22.60;70.70
19947;DHT22;10135;50.702;7.276;2023-10-13T08:25:13;22.60;70.70
19947;DHT22;10135;50.702;7.276;2023-10-13T08:27:25;22.70;70.60
19947;DHT22;10135;50.702;7.276;2023-10-13T08:29:35;22.70;70.60
19947;DHT22;10135;50.702;7.276;2023-10-13T08:31:55;22.70;70.40
19947;DHT22;10135;50.702;7.276;2023-10-13T08:34:04;22.70;70.40
19947;DHT22;10135;50.702;7.276;2023-10-13T08:36:16;22.70;70.20
19947;DHT22;10135;50.702;7.276;2023-10-13T08:38:29;22.80;70.20
19947;DHT22;10135;50.702;7.276;2023-10-13T08:40:30;22.80;70.00
19947;DHT22;10135;50.702;7.276;2023-10-13T08:42:44;22.80;70.00
19947;DHT22;10135;50.702;7.276;2023-10-13T08:44:45;22.80;69.90
19947;DHT22;10135;50.702;7.276;2023-10-13T08:46:46;22.80;69.70
19947;DHT22;10135;50.702;7.276;2023-10-13T08:49:07;22.90;69.70
19947;DHT22;10135;50.702;7.276;2023-10-13T08:51:15;22.80;69.60
19947;DHT22;10135;50.702;7.276;2023-10-13T08:53:32;22.80;69.70
19947;DHT22;10135;50.702;7.276;2023-10-13T08:55:34;22.90;69.60
19947;DHT22;10135;50.702;7.276;2023-10-13T08:57:48;22.90;69.50
19947;DHT22;10135;50.702;7.276;2023-10-13T08:59:53;22.90;69.40
19947;DHT22;10135;50.702;7.276;2023-10-13T09:01:55;22.90;69.40
19947;DHT22;10135;50.702;7.276;2023-10-13T09:04:17;22.90;69.30
19947;DHT22;10135;50.702;7.276;2023-10-13T09:06:19;22.90;69.20
19947;DHT22;10135;50.702;7.276;2023-10-13T09:08:25;22.90;69.10
19947;DHT22;10135;50.702;7.276;2023-10-13T09:10:36;22.90;68.90
19947;DHT22;10135;50.702;7.276;2023-10-13T09:12:54;23.00;69.10
19947;DHT22;10135;50.702;7.276;2023-10-13T09:15:11;23.00;69.10
19947;DHT22;10135;50.702;7.276;2023-10-13T09:17:14;23.00;68.90
19947;DHT22;10135;50.702;7.276;2023-10-13T09:19:44;23.00;68.80
19947;DHT22;10135;50.702;7.276;2023-10-13T09:21:56;23.00;68.20
19947;DHT22;10135;50.702;7.276;2023-10-13T09:23:56;23.00;68.70
19947;DHT22;10135;50.702;7.276;2023-10-13T09:26:17;23.10;68.60
19947;DHT22;10135;50.702;7.276;2023-10-13T09:28:20;23.20;68.60
19947;DHT22;10135;50.702;7.276;2023-10-13T09:30:25;23.20;68.40
19947;DHT22;10135;50.702;7.276;2023-10-13T09:32:29;23.20;68.30
19947;DHT22;10135;50.702;7.276;2023-10-13T09:34:30;23.20;68.20
19947;DHT22;10135;50.702;7.276;2023-10-13T09:36:34;23.30;68.30
19947;DHT22;10135;50.702;7.276;2023-10-13T09:38:37;23.30;69.00
19947;DHT22;10135;50.702;7.276;2023-10-13T09:40:40;23.30;68.10
19947;DHT22;10135;50.702;7.276;2023-10-13T09:42:50;23.30;67.90
19947;DHT22;10135;50.702;7.276;2023-10-13T09:44:51;23.40;67.90
19947;DHT22;10135;50.702;7.276;2023-10-13T09:47:00;23.40;67.80
19947;DHT22;10135;50.702;7.276;2023-10-13T09:49:12;23.50;67.40
19947;DHT22;10135;50.702;7.276;2023-10-13T09:51:34;23.50;67.10
19947;DHT22;10135;50.702;7.276;2023-10-13T09:53:36;23.50;67.50
19947;DHT22;10135;50.702;7.276;2023-10-13T09:55:50;23.50;67.30
19947;DHT22;10135;50.702;7.276;2023-10-13T09:58:03;23.50;66.80
19947;DHT22;10135;50.702;7.276;2023-10-13T10:00:17;23.60;66.70
19947;DHT22;10135;50.702;7.276;2023-10-13T10:02:29;23.50;66.60
19947;DHT22;10135;50.702;7.276;2023-10-13T10:04:30;23.60;67.10
19947;DHT22;10135;50.702;7.276;2023-10-13T10:06:36;23.60;66.90
19947;DHT22;10135;50.702;7.276;2023-10-13T10:08:44;23.60;66.90
19947;DHT22;10135;50.702;7.276;2023-10-13T10:10:59;23.70;66.90
19947;DHT22;10135;50.702;7.276;2023-10-13T10:13:25;23.70;66.30
19947;DHT22;10135;50.702;7.276;2023-10-13T10:15:35;23.70;66.20
19947;DHT22;10135;50.702;7.276;2023-10-13T10:17:47;23.70;66.50
19947;DHT22;10135;50.702;7.276;2023-10-13T10:19:52;23.80;66.50
19947;DHT22;10135;50.702;7.276;2023-10-13T10:22:04;23.80;66.20
19947;DHT22;10135;50.702;7.276;2023-10-13T10:24:21;23.90;65.90
19947;DHT22;10135;50.702;7.276;2023-10-13T10:26:53;23.90;65.90
19947;DHT22;10135;50.702;7.276;2023-10-13T10:28:54;24.00;65.50
19947;DHT22;10135;50.702;7.276;2023-10-13T10:31:05;23.90;66.10
19947;DHT22;10135;50.702;7.276;2023-10-13T10:33:10;24.00;65.20
19947;DHT22;10135;50.702;7.276;2023-10-13T10:35:23;24.00;65.80
19947;DHT22;10135;50.702;7.276;2023-10-13T10:37:32;24.10;65.50
19947;DHT22;10135;50.702;7.276;2023-10-13T10:39:35;24.10;64.90
19947;DHT22;10135;50.702;7.276;2023-10-13T10:41:46;24.10;65.50
19947;DHT22;10135;50.702;7.276;2023-10-13T10:43:52;24.20;65.50
19947;DHT22;10135;50.702;7.276;2023-10-13T10:45:53;24.20;65.30
19947;DHT22;10135;50.702;7.276;2023-10-13T10:47:59;24.30;65.30
19947;DHT22;10135;50.702;7.276;2023-10-13T10:50:13;24.30;65.20
19947;DHT22;10135;50.702;7.276;2023-10-13T10:52:20;24.40;65.10
19947;DHT22;10135;50.702;7.276;2023-10-13T10:54:21;24.40;65.00
19947;DHT22;10135;50.702;7.276;2023-10-13T10:56:25;24.40;64.90
19947;DHT22;10135;50.702;7.276;2023-10-13T10:58:36;24.50;64.40
19947;DHT22;10135;50.702;7.276;2023-10-13T11:00:44;24.50;64.70
19947;DHT22;10135;50.702;7.276;2023-10-13T11:02:54;24.50;64.50
19947;DHT22;10135;50.702;7.276;2023-10-13T11:04:56;24.60;63.90
19947;DHT22;10135;50.702;7.276;2023-10-13T11:06:58;24.60;64.20
19947;DHT22;10135;50.702;7.276;2023-10-13T11:09:05;24.60;64.10
19947;DHT22;10135;50.702;7.276;2023-10-13T11:11:29;24.70;63.40
19947;DHT22;10135;50.702;7.276;2023-10-13T11:13:42;24.80;63.50
19947;DHT22;10135;50.702;7.276;2023-10-13T11:15:51;24.80;64.00
19947;DHT22;10135;50.702;7.276;2023-10-13T11:17:52;24.80;63.70
19947;DHT22;10135;50.702;7.276;2023-10-13T11:19:55;24.90;63.70
19947;DHT22;10135;50.702;7.276;2023-10-13T11:21:56;24.90;63.30
19947;DHT22;10135;50.702;7.276;2023-10-13T11:23:57;24.90;63.30
19947;DHT22;10135;50.702;7.276;2023-10-13T11:26:08;25.00;63.10
19947;DHT22;10135;50.702;7.276;2023-10-13T11:28:13;25.00;63.80
19947;DHT22;10135;50.702;7.276;2023-10-13T11:30:18;25.00;62.50
19947;DHT22;10135;50.702;7.276;2023-10-13T11:32:26;25.10;62.90
19947;DHT22;10135;50.702;7.276;2023-10-13T11:34:29;25.10;62.70
19947;DHT22;10135;50.702;7.276;2023-10-13T11:36:39;25.20;62.60
19947;DHT22;10135;50.702;7.276;2023-10-13T11:38:40;25.20;62.40
19947;DHT22;10135;50.702;7.276;2023-10-13T11:40:41;25.20;62.20
19947;DHT22;10135;50.702;7.276;2023-10-13T11:43:04;25.20;62.10
19947;DHT22;10135;50.702;7.276;2023-10-13T11:45:05;25.20;62.00
19947;DHT22;10135;50.702;7.276;2023-10-13T11:47:25;25.20;61.80
19947;DHT22;10135;50.702;7.276;2023-10-13T11:49:48;25.30;61.70
19947;DHT22;10135;50.702;7.276;2023-10-13T11:51:50;25.30;61.50
19947;DHT22;10135;50.702;7.276;2023-10-13T11:53:51;25.30;61.40
19947;DHT22;10135;50.702;7.276;2023-10-13T11:55:52;25.30;61.20
19947;DHT22;10135;50.702;7.276;2023-10-13T11:57:53;25.30;61.00
19947;DHT22;10135;50.702;7.276;2023-10-13T11:59:53;25.30;60.80
19947;DHT22;10135;50.702;7.276;2023-10-13T12:01:56;25.30;60.80
19947;DHT22;10135;50.702;7.276;2023-10-13T12:04:15;25.30;60.60
19947;DHT22;10135;50.702;7.276;2023-10-13T12:06:41;25.40;60.70
19947;DHT22;10135;50.702;7.276;2023-10-13T12:08:44;25.40;60.50
19947;DHT22;10135;50.702;7.276;2023-10-13T12:10:52;25.40;60.40
19947;DHT22;10135;50.702;7.276;2023-10-13T12:13:01;25.50;60.30
19947;DHT22;10135;50.702;7.276;2023-10-13T12:15:06;25.50;60.20
19947;DHT22;10135;50.702;7.276;2023-10-13T12:17:13;25.50;60.10
19947;DHT22;10135;50.702;7.276;2023-10-13T12:19:20;25.60;60.10
19947;DHT22;10135;50.702;7.276;2023-10-13T12:21:24;25.60;59.80
19947;DHT22;10135;50.702;7.276;2023-10-13T12:23:24;25.60;59.90
19947;DHT22;10135;50.702;7.276;2023-10-13T12:25:32;25.70;59.80
19947;DHT22;10135;50.702;7.276;2023-10-13T12:27:33;25.70;59.70
19947;DHT22;10135;50.702;7.276;2023-10-13T12:29:47;25.70;59.50
19947;DHT22;10135;50.702;7.276;2023-10-13T12:31:56;25.70;59.40
19947;DHT22;10135;50.702;7.276;2023-10-13T12:34:11;25.80;59.40
19947;DHT22;10135;50.702;7.276;2023-10-13T12:36:19;25.80;59.30
19947;DHT22;10135;50.702;7.276;2023-10-13T12:38:20;25.90;59.20
19947;DHT22;10135;50.702;7.276;2023-10-13T12:40:39;25.90;59.10
19947;DHT22;10135;50.702;7.276;2023-10-13T12:42:58;25.90;59.00
19947;DHT22;10135;50.702;7.276;2023-10-13T12:45:18;25.90;58.90
19947;DHT22;10135;50.702;7.276;2023-10-13T12:47:37;26.00;58.90
19947;DHT22;10135;50.702;7.276;2023-10-13T12:49:56;26.00;58.80
19947;DHT22;10135;50.702;7.276;2023-10-13T12:52:05;26.00;58.70
19947;DHT22;10135;50.702;7.276;2023-10-13T12:54:16;26.00;58.50
19947;DHT22;10135;50.702;7.276;2023-10-13T12:56:23;26.00;58.40
19947;DHT22;10135;50.702;7.276;2023-10-13T12:58:26;26.00;58.30
19947;DHT22;10135;50.702;7.276;2023-10-13T13:00:27;26.00;58.30
19947;DHT22;10135;50.702;7.276;2023-10-13T13:02:33;26.00;58.20
19947;DHT22;10135;50.702;7.276;2023-10-13T13:04:34;26.00;58.00
19947;DHT22;10135;50.702;7.276;2023-10-13T13:06:37;26.00;58.00
19947;DHT22;10135;50.702;7.276;2023-10-13T13:08:37;26.00;57.90
19947;DHT22;10135;50.702;7.276;2023-10-13T13:10:44;26.00;57.80
19947;DHT22;10135;50.702;7.276;2023-10-13T13:12:48;26.10;57.80
19947;DHT22;10135;50.702;7.276;2023-10-13T13:14:48;26.10;57.70
19947;DHT22;10135;50.702;7.276;2023-10-13T13:16:58;26.00;57.50
19947;DHT22;10135;50.702;7.276;2023-10-13T13:19:04;26.10;57.20
19947;DHT22;10135;50.702;7.276;2023-10-13T13:21:11;26.10;57.40
19947;DHT22;10135;50.702;7.276;2023-10-13T13:23:22;26.10;57.30
19947;DHT22;10135;50.702;7.276;2023-10-13T13:25:31;26.10;57.30
19947;DHT22;10135;50.702;7.276;2023-10-13T13:27:33;26.10;57.30
19947;DHT22;10135;50.702;7.276;2023-10-13T13:29:33;26.00;57.20
19947;DHT22;10135;50.702;7.276;2023-10-13T13:31:38;26.10;57.00
19947;DHT22;10135;50.702;7.276;2023-10-13T13:33:45;26.00;56.90
19947;DHT22;10135;50.702;7.276;2023-10-13T13:35:45;26.00;56.90
19947;DHT22;10135;50.702;7.276;2023-10-13T13:37:49;26.00;56.90
19947;DHT22;10135;50.702;7.276;2023-10-13T13:39:49;26.00;56.90
19947;DHT22;10135;50.702;7.276;2023-10-13T13:41:53;26.00;56.80
19947;DHT22;10135;50.702;7.276;2023-10-13T13:43:57;26.00;56.70
19947;DHT22;10135;50.702;7.276;2023-10-13T13:45:59;26.00;56.70
19947;DHT22;10135;50.702;7.276;2023-10-13T13:48:03;26.00;56.60
19947;DHT22;10135;50.702;7.276;2023-10-13T13:50:08;26.00;56.60
19947;DHT22;10135;50.702;7.276;2023-10-13T13:52:17;25.90;56.50
19947;DHT22;10135;50.702;7.276;2023-10-13T13:54:21;25.90;56.50
19947;DHT22;10135;50.702;7.276;2023-10-13T13:56:23;25.90;56.40
19947;DHT22;10135;50.702;7.276;2023-10-13T13:58:27;25.90;56.40
19947;DHT22;10135;50.702;7.276;2023-10-13T14:00:29;25.90;56.40
19947;DHT22;10135;50.702;7.276;2023-10-13T14:02:39;25.90;56.30
19947;DHT22;10135;50.702;7.276;2023-10-13T14:04:40;25.80;56.20
19947;DHT22;10135;50.702;7.276;2023-10-13T14:06:40;25.90;56.20
19947;DHT22;10135;50.702;7.276;2023-10-13T14:08:41;25.80;56.10
19947;DHT22;10135;50.702;7.276;2023-10-13T14:10:42;25.80;56.10
19947;DHT22;10135;50.702;7.276;2023-10-13T14:13:12;25.80;56.00
19947;DHT22;10135;50.702;7.276;2023-10-13T14:15:16;25.80;56.00
19947;DHT22;10135;50.702;7.276;2023-10-13T14:17:20;25.80;56.00
19947;DHT22;10135;50.702;7.276;2023-10-13T14:19:20;25.80;55.90
19947;DHT22;10135;50.702;7.276;2023-10-13T14:21:27;25.80;55.90
19947;DHT22;10135;50.702;7.276;2023-10-13T14:23:28;25.80;55.90
19947;DHT22;10135;50.702;7.276;2023-10-13T14:25:30;25.70;55.80
19947;DHT22;10135;50.702;7.276;2023-10-13T14:27:37;25.70;55.70
19947;DHT22;10135;50.702;7.276;2023-10-13T14:29:38;25.70;55.70
19947;DHT22;10135;50.702;7.276;2023-10-13T14:31:45;25.70;55.60
19947;DHT22;10135;50.702;7.276;2023-10-13T14:33:49;25.70;55.60
19947;DHT22;10135;50.702;7.276;2023-10-13T14:35:49;25.70;55.60
19947;DHT22;10135;50.702;7.276;2023-10-13T14:37:50;25.70;55.50
19947;DHT22;10135;50.702;7.276;2023-10-13T14:39:50;25.70;55.50
19947;DHT22;10135;50.702;7.276;2023-10-13T14:41:51;25.70;55.50
19947;DHT22;10135;50.702;7.276;2023-10-13T14:43:52;25.70;55.50
19947;DHT22;10135;50.702;7.276;2023-10-13T14:45:56;25.70;55.40
19947;DHT22;10135;50.702;7.276;2023-10-13T14:47:56;25.70;55.10
19947;DHT22;10135;50.702;7.276;2023-10-13T14:49:57;25.70;55.30
19947;DHT22;10135;50.702;7.276;2023-10-13T14:52:04;25.70;55.30
19947;DHT22;10135;50.702;7.276;2023-10-13T14:54:04;25.70;55.30
19947;DHT22;10135;50.702;7.276;2023-10-13T14:56:05;25.70;55.20
19947;DHT22;10135;50.702;7.276;2023-10-13T14:58:08;25.70;55.10
19947;DHT22;10135;50.702;7.276;2023-10-13T15:00:09;25.70;55.10
19947;DHT22;10135;50.702;7.276;2023-10-13T15:02:13;25.70;55.10
19947;DHT22;10135;50.702;7.276;2023-10-13T15:04:14;25.70;55.00
19947;DHT22;10135;50.702;7.276;2023-10-13T15:06:19;25.70;55.00
19947;DHT22;10135;50.702;7.276;2023-10-13T15:08:21;25.70;54.90
19947;DHT22;10135;50.702;7.276;2023-10-13T15:10:21;25.70;54.90
19947;DHT22;10135;50.702;7.276;2023-10-13T15:12:24;25.70;54.80
19947;DHT22;10135;50.702;7.276;2023-10-13T15:14:26;25.70;54.80
19947;DHT22;10135;50.702;7.276;2023-10-13T15:16:26;25.70;54.70
19947;DHT22;10135;50.702;7.276;2023-10-13T15:18:27;25.70;54.60
19947;DHT22;10135;50.702;7.276;2023-10-13T15:20:27;25.70;54.70
19947;DHT22;10135;50.702;7.276;2023-10-13T15:22:28;25.70;54.60
19947;DHT22;10135;50.702;7.276;2023-10-13T15:24:29;25.70;54.50
19947;DHT22;10135;50.702;7.276;2023-10-13T15:26:33;25.70;54.50
19947;DHT22;10135;50.702;7.276;2023-10-13T15:28:37;25.70;54.30
19947;DHT22;10135;50.702;7.276;2023-10-13T15:30:38;25.70;54.40
19947;DHT22;10135;50.702;7.276;2023-10-13T15:32:52;25.70;54.40
19947;DHT22;10135;50.702;7.276;2023-10-13T15:34:54;25.60;54.30
19947;DHT22;10135;50.702;7.276;2023-10-13T15:36:57;25.60;54.20
19947;DHT22;10135;50.702;7.276;2023-10-13T15:38:59;25.60;54.20
19947;DHT22;10135;50.702;7.276;2023-10-13T15:41:00;25.60;54.20
19947;DHT22;10135;50.702;7.276;2023-10-13T15:43:04;25.60;54.20
19947;DHT22;10135;50.702;7.276;2023-10-13T15:45:06;25.60;54.20
19947;DHT22;10135;50.702;7.276;2023-10-13T15:47:16;25.60;54.20
19947;DHT22;10135;50.702;7.276;2023-10-13T15:49:18;25.60;54.20
19947;DHT22;10135;50.702;7.276;2023-10-13T15:51:19;25.50;54.10
19947;DHT22;10135;50.702;7.276;2023-10-13T15:53:20;25.50;54.10
19947;DHT22;10135;50.702;7.276;2023-10-13T15:55:20;25.50;54.10
19947;DHT22;10135;50.702;7.276;2023-10-13T15:57:21;25.50;54.00
19947;DHT22;10135;50.702;7.276;2023-10-13T15:59:23;25.50;54.00
19947;DHT22;10135;50.702;7.276;2023-10-13T16:01:24;25.50;54.00
19947;DHT22;10135;50.702;7.276;2023-10-13T16:03:25;25.50;54.00
19947;DHT22;10135;50.702;7.276;2023-10-13T16:05:30;25.50;54.00
19947;DHT22;10135;50.702;7.276;2023-10-13T16:07:34;25.50;53.80
19947;DHT22;10135;50.702;7.276;2023-10-13T16:09:35;25.40;53.90
19947;DHT22;10135;50.702;7.276;2023-10-13T16:11:36;25.40;53.80
19947;DHT22;10135;50.702;7.276;2023-10-13T16:13:37;25.40;53.80
19947;DHT22;10135;50.702;7.276;2023-10-13T16:15:38;25.40;53.90
19947;DHT22;10135;50.702;7.276;2023-10-13T16:17:42;25.40;53.80
19947;DHT22;10135;50.702;7.276;2023-10-13T16:19:44;25.40;53.80
19947;DHT22;10135;50.702;7.276;2023-10-13T16:21:45;25.40;53.80
19947;DHT22;10135;50.702;7.276;2023-10-13T16:23:48;25.40;53.80
19947;DHT22;10135;50.702;7.276;2023-10-13T16:25:48;25.40;53.80
19947;DHT22;10135;50.702;7.276;2023-10-13T16:27:50;25.40;53.80
19947;DHT22;10135;50.702;7.276;2023-10-13T16:29:50;25.40;53.80
19947;DHT22;10135;50.702;7.276;2023-10-13T16:31:51;25.40;53.80
19947;DHT22;10135;50.702;7.276;2023-10-13T16:33:51;25.30;53.70
19947;DHT22;10135;50.702;7.276;2023-10-13T16:35:55;25.30;53.70
19947;DHT22;10135;50.702;7.276;2023-10-13T16:37:57;25.30;53.70
19947;DHT22;10135;50.702;7.276;2023-10-13T16:39:57;25.30;53.70
19947;DHT22;10135;50.702;7.276;2023-10-13T16:42:08;25.30;53.70
19947;DHT22;10135;50.702;7.276;2023-10-13T16:44:09;25.30;53.70
19947;DHT22;10135;50.702;7.276;2023-10-13T16:46:10;25.30;53.70
19947;DHT22;10135;50.702;7.276;2023-10-13T16:48:12;25.30;53.70
19947;DHT22;10135;50.702;7.276;2023-10-13T16:50:19;25.30;53.70
19947;DHT22;10135;50.702;7.276;2023-10-13T16:52:21;25.30;53.70
19947;DHT22;10135;50.702;7.276;2023-10-13T16:54:23;25.30;53.70
19947;DHT22;10135;50.702;7.276;2023-10-13T16:56:24;25.30;53.70
19947;DHT22;10135;50.702;7.276;2023-10-13T16:58:25;25.30;53.70
19947;DHT22;10135;50.702;7.276;2023-10-13T17:00:27;25.30;53.70
19947;DHT22;10135;50.702;7.276;2023-10-13T17:02:28;25.30;53.70
19947;DHT22;10135;50.702;7.276;2023-10-13T17:04:28;25.30;53.70
19947;DHT22;10135;50.702;7.276;2023-10-13T17:06:30;25.30;53.70
19947;DHT22;10135;50.702;7.276;2023-10-13T17:08:31;25.30;53.70
19947;DHT22;10135;50.702;7.276;2023-10-13T17:10:34;25.30;53.70
19947;DHT22;10135;50.702;7.276;2023-10-13T17:12:36;25.30;53.70
19947;DHT22;10135;50.702;7.276;2023-10-13T17:14:38;25.30;53.60
19947;DHT22;10135;50.702;7.276;2023-10-13T17:16:40;25.30;53.70
19947;DHT22;10135;50.702;7.276;2023-10-13T17:18:45;25.30;53.60
19947;DHT22;10135;50.702;7.276;2023-10-13T17:20:47;25.30;53.60
19947;DHT22;10135;50.702;7.276;2023-10-13T17:22:48;25.30;53.60
19947;DHT22;10135;50.702;7.276;2023-10-13T17:24:49;25.20;53.60
19947;DHT22;10135;50.702;7.276;2023-10-13T17:26:50;25.20;53.60
19947;DHT22;10135;50.702;7.276;2023-10-13T17:28:51;25.20;53.60
19947;DHT22;10135;50.702;7.276;2023-10-13T17:30:55;25.20;54.20
19947;DHT22;10135;50.702;7.276;2023-10-13T17:32:56;25.20;53.60
19947;DHT22;10135;50.702;7.276;2023-10-13T17:34:56;25.20;53.60
19947;DHT22;10135;50.702;7.276;2023-10-13T17:36:57;25.20;53.60
19947;DHT22;10135;50.702;7.276;2023-10-13T17:38:58;25.10;53.50
19947;DHT22;10135;50.702;7.276;2023-10-13T17:40:59;25.10;53.60
19947;DHT22;10135;50.702;7.276;2023-10-13T17:43:00;25.10;53.60
19947;DHT22;10135;50.702;7.276;2023-10-13T17:45:03;25.10;53.60
19947;DHT22;10135;50.702;7.276;2023-10-13T17:47:05;25.10;53.50
19947;DHT22;10135;50.702;7.276;2023-10-13T17:49:10;25.10;53.60
19947;DHT22;10135;50.702;7.276;2023-10-13T17:51:12;25.10;53.60
19947;DHT22;10135;50.702;7.276;2023-10-13T17:53:13;25.10;53.60
19947;DHT22;10135;50.702;7.276;2023-10-13T17:55:14;25.10;53.60
19947;DHT22;10135;50.702;7.276;2023-10-13T17:57:17;25.10;53.60
19947;DHT22;10135;50.702;7.276;2023-10-13T17:59:17;25.10;53.60
19947;DHT22;10135;50.702;7.276;2023-10-13T18:01:18;25.10;53.60
19947;DHT22;10135;50.702;7.276;2023-10-13T18:03:19;25.10;53.60
19947;DHT22;10135;50.702;7.276;2023-10-13T18:05:20;25.10;54.20
19947;DHT22;10135;50.702;7.276;2023-10-13T18:07:21;25.10;53.60
19947;DHT22;10135;50.702;7.276;2023-10-13T18:09:23;25.10;53.50
19947;DHT22;10135;50.702;7.276;2023-10-13T18:11:28;25.10;53.60
19947;DHT22;10135;50.702;7.276;2023-10-13T18:13:30;25.10;53.50
19947;DHT22;10135;50.702;7.276;2023-10-13T18:15:31;25.10;53.50
19947;DHT22;10135;50.702;7.276;2023-10-13T18:17:32;25.10;53.50
19947;DHT22;10135;50.702;7.276;2023-10-13T18:19:32;25.10;53.50